createdAt,value
2019-05-07T00:01:58.115Z,8.47
2019-05-07T00:04:26.921Z,8.80
2019-05-07T00:06:55.554Z,8.30
2019-05-07T00:09:24.212Z,7.77
2019-05-07T00:11:53.475Z,10.17
2019-05-07T00:14:23.229Z,7.17
2019-05-07T00:16:53.426Z,7.47
2019-05-07T00:19:23.180Z,6.40
2019-05-07T00:21:52.795Z,6.47
2019-05-07T00:24:22.364Z,6.27
2019-05-07T00:26:53.199Z,6.33
2019-05-07T00:29:22.405Z,6.30
2019-05-07T00:31:52.084Z,7.20
2019-05-07T00:34:22.528Z,6.00
2019-05-07T00:36:58.794Z,5.83
2019-05-07T00:39:29.069Z,6.23
2019-05-07T00:42:15.739Z,5.77
2019-05-07T00:44:57.956Z,5.30
2019-05-07T00:47:26.532Z,4.70
2019-05-07T00:49:56.795Z,4.97
2019-05-07T00:52:25.455Z,4.23
2019-05-07T00:54:54.109Z,3.87
2019-05-07T00:57:22.949Z,3.50
2019-05-07T00:59:52.466Z,3.33
2019-05-07T01:02:22.919Z,3.63
2019-05-07T01:04:53.206Z,3.60
2019-05-07T01:07:22.915Z,3.40
2019-05-07T01:09:52.453Z,3.30
2019-05-07T01:12:22.263Z,3.30
2019-05-07T01:14:52.897Z,3.73
2019-05-07T01:17:22.743Z,3.10
2019-05-07T01:19:53.256Z,3.40
2019-05-07T01:22:22.376Z,3.23
2019-05-07T01:24:52.770Z,3.00
2019-05-07T01:27:22.596Z,3.10
2019-05-07T01:29:52.802Z,3.33
2019-05-07T01:32:32.976Z,3.00
2019-05-07T01:35:09.201Z,3.07
2019-05-07T01:37:37.755Z,3.07
2019-05-07T01:40:06.686Z,3.17
2019-05-07T01:42:36.693Z,3.50
2019-05-07T01:45:07.721Z,3.23
2019-05-07T01:47:36.408Z,3.50
2019-05-07T01:50:05.526Z,3.53
2019-05-07T01:52:34.264Z,3.20
2019-05-07T01:55:03.414Z,3.43
2019-05-07T01:57:32.767Z,3.53
2019-05-07T02:00:02.639Z,3.73
2019-05-07T02:02:33.096Z,3.47
2019-05-07T02:05:06.301Z,3.60
2019-05-07T02:07:36.490Z,3.30
2019-05-07T02:10:14.127Z,3.27
2019-05-07T02:12:43.031Z,3.70
2019-05-07T02:15:12.077Z,3.23
2019-05-07T02:17:42.839Z,3.50
2019-05-07T02:20:13.064Z,3.63
2019-05-07T02:22:42.713Z,3.23
2019-05-07T02:25:12.672Z,3.33
2019-05-07T02:27:42.227Z,3.47
2019-05-07T02:30:14.428Z,3.53
2019-05-07T02:32:43.358Z,3.13
2019-05-07T02:35:13.638Z,3.30
2019-05-07T02:37:51.089Z,4.03
2019-05-07T02:40:16.061Z,3.47
2019-05-07T02:42:44.691Z,3.40
2019-05-07T02:45:32.935Z,3.13
2019-05-07T02:48:03.256Z,4.33
2019-05-07T02:50:38.494Z,3.37
2019-05-07T02:53:18.220Z,8.17
2019-05-07T02:55:58.001Z,3.90
2019-05-07T02:58:26.821Z,3.20
2019-05-07T03:00:57.022Z,4.80
2019-05-07T03:03:25.849Z,3.40
2019-05-07T03:05:54.763Z,3.47
2019-05-07T03:08:27.577Z,3.67
2019-05-07T03:10:55.987Z,3.10
2019-05-07T03:13:24.770Z,3.00
2019-05-07T03:15:55.206Z,2.93
2019-05-07T03:18:25.460Z,2.90
2019-05-07T03:20:58.312Z,3.00
2019-05-07T03:23:34.075Z,2.43
2019-05-07T03:26:09.755Z,2.70
2019-05-07T03:28:53.121Z,2.77
2019-05-07T03:31:27.396Z,3.13
2019-05-07T03:34:06.879Z,2.60
2019-05-07T03:36:39.706Z,2.80
2019-05-07T03:39:09.795Z,3.40
2019-05-07T03:41:38.831Z,2.80
2019-05-07T03:44:24.715Z,2.73
2019-05-07T03:47:02.149Z,2.47
2019-05-07T03:49:34.516Z,2.73
2019-05-07T03:52:04.393Z,3.00
2019-05-07T03:54:34.183Z,2.90
2019-05-07T03:57:10.660Z,2.80
2019-05-07T03:59:34.787Z,2.20
2019-05-07T04:02:06.615Z,2.60
2019-05-07T04:04:35.436Z,2.35
2019-05-07T04:07:04.390Z,2.10
2019-05-07T04:09:33.599Z,2.20
2019-05-07T04:12:03.896Z,2.17
2019-05-07T04:14:34.371Z,2.20
2019-05-07T04:17:14.207Z,2.40
2019-05-07T04:19:33.733Z,2.30
2019-05-07T04:22:04.247Z,2.00
2019-05-07T04:24:37.377Z,2.00
2019-05-07T04:27:13.088Z,1.87
2019-05-07T04:29:42.948Z,2.10
2019-05-07T04:32:15.127Z,1.87
2019-05-07T04:34:45.422Z,2.20
2019-05-07T04:37:14.664Z,2.03
2019-05-07T04:39:55.362Z,1.87
2019-05-07T04:42:24.637Z,2.03
2019-05-07T04:44:54.161Z,1.83
2019-05-07T04:47:34.725Z,2.13
2019-05-07T04:49:55.177Z,2.30
2019-05-07T04:52:36.168Z,2.30
2019-05-07T04:55:06.322Z,2.20
2019-05-07T04:57:35.083Z,2.00
2019-05-07T05:00:05.207Z,2.20
2019-05-07T05:02:38.261Z,2.33
2019-05-07T05:05:06.983Z,2.43
2019-05-07T05:07:35.885Z,2.20
2019-05-07T05:10:07.411Z,2.43
2019-05-07T05:12:36.136Z,2.40
2019-05-07T05:16:02.419Z,1.83
2019-05-07T05:22:31.804Z,1.83
2019-05-07T05:31:22.844Z,2.00
2019-05-07T05:34:49.193Z,1.63
2019-05-07T05:38:13.873Z,1.57
2019-05-07T05:47:06.431Z,1.50
2019-05-07T05:53:15.870Z,1.60
2019-05-07T06:19:05.515Z,2.00
2019-05-07T06:31:57.435Z,1.43
2019-05-07T06:34:57.335Z,1.93
2019-05-07T06:40:55.991Z,3.50
2019-05-07T06:43:57.908Z,1.93
2019-05-07T06:59:28.415Z,1.93
2019-05-07T07:09:32.955Z,1.60
2019-05-07T07:18:48.628Z,1.50
2019-05-07T07:34:29.218Z,1.47
2019-05-07T07:37:47.976Z,1.40
2019-05-07T07:53:04.161Z,2.97
2019-05-07T08:08:24.952Z,5.17
2019-05-07T08:11:26.273Z,2.30
2019-05-07T08:18:07.458Z,1.50
2019-05-07T08:21:19.619Z,2.40
2019-05-07T08:30:52.591Z,9.47
2019-05-07T08:37:12.115Z,4.47
2019-05-07T08:52:17.972Z,3.70
2019-05-07T08:55:33.289Z,5.83
2019-05-07T08:58:43.622Z,1.93
2019-05-07T09:01:44.751Z,5.20
2019-05-07T09:05:09.318Z,3.77
2019-05-07T09:08:21.741Z,3.07
2019-05-07T09:11:56.044Z,6.67
2019-05-07T09:15:12.435Z,5.10
2019-05-07T09:18:23.032Z,4.20
2019-05-07T09:24:42.716Z,4.20
2019-05-07T09:45:05.206Z,3.70
2019-05-07T09:57:58.648Z,6.80
2019-05-07T10:01:12.880Z,3.63
2019-05-07T10:04:13.297Z,5.53
2019-05-07T10:07:05.854Z,5.67
2019-05-07T10:16:07.896Z,3.60
2019-05-07T10:19:17.700Z,4.53
2019-05-07T10:22:24.772Z,3.47
2019-05-07T10:25:37.777Z,4.33
2019-05-07T10:34:25.050Z,8.13
2019-05-07T10:36:53.950Z,9.33
2019-05-07T10:39:22.581Z,4.43
2019-05-07T10:41:51.317Z,5.97
2019-05-07T10:44:22.878Z,4.70
2019-05-07T10:47:09.374Z,4.73
2019-05-07T10:49:39.657Z,6.53
2019-05-07T10:52:08.301Z,6.23
2019-05-07T10:54:36.963Z,5.67
2019-05-07T10:57:05.631Z,4.50
2019-05-07T10:59:34.282Z,6.00
2019-05-07T11:02:07.288Z,4.80
2019-05-07T11:04:42.281Z,7.40
2019-05-07T11:07:06.432Z,6.53
2019-05-07T11:09:35.062Z,5.70
2019-05-07T11:12:03.779Z,9.60
2019-05-07T11:14:32.499Z,6.77
2019-05-07T11:17:02.770Z,7.10
2019-05-07T11:19:32.471Z,5.97
2019-05-07T11:22:01.202Z,9.03
2019-05-07T11:24:31.992Z,7.07
2019-05-07T11:27:02.313Z,7.33
2019-05-07T11:29:32.774Z,5.90
2019-05-07T11:32:01.265Z,6.20
2019-05-07T11:34:32.737Z,6.60
2019-05-07T11:37:02.439Z,7.40
2019-05-07T11:39:33.205Z,7.53
2019-05-07T11:42:12.736Z,7.23
2019-05-07T11:44:42.411Z,7.53
2019-05-07T11:47:22.498Z,9.37
2019-05-07T11:50:09.139Z,8.87
2019-05-07T11:52:48.550Z,9.40
2019-05-07T11:55:17.278Z,9.23
2019-05-07T11:57:45.942Z,8.70
2019-05-07T12:00:21.861Z,9.43
2019-05-07T12:02:51.424Z,9.63
2019-05-07T12:05:22.551Z,11.27
2019-05-07T12:07:50.593Z,9.90
2019-05-07T12:10:19.243Z,11.30
2019-05-07T12:12:47.888Z,11.43
2019-05-07T12:15:17.052Z,10.27
2019-05-07T12:17:45.727Z,10.77
2019-05-07T12:20:16.013Z,11.03
2019-05-07T12:22:48.105Z,10.37
2019-05-07T12:25:19.232Z,10.07
2019-05-07T12:27:49.561Z,10.77
2019-05-07T12:30:33.169Z,11.07
2019-05-07T12:33:06.283Z,10.47
2019-05-07T12:35:37.664Z,11.20
2019-05-07T12:38:06.394Z,11.37
2019-05-07T12:40:36.254Z,10.50
2019-05-07T12:43:04.918Z,11.50
2019-05-07T12:45:34.045Z,10.87
2019-05-07T12:48:02.741Z,11.47
2019-05-07T12:50:32.859Z,12.17
2019-05-07T12:53:03.385Z,12.10
2019-05-07T12:55:52.127Z,11.67
2019-05-07T12:58:21.849Z,12.23
2019-05-07T13:00:52.206Z,11.70
2019-05-07T13:03:22.530Z,12.33
2019-05-07T13:05:52.088Z,12.53
2019-05-07T13:08:22.977Z,12.17
2019-05-07T13:10:52.045Z,13.03
2019-05-07T13:13:20.776Z,13.27
2019-05-07T13:15:51.657Z,13.47
2019-05-07T13:18:20.068Z,13.03
2019-05-07T13:20:48.963Z,12.70
2019-05-07T13:23:17.629Z,13.30
2019-05-07T13:25:46.319Z,11.73
2019-05-07T13:28:15.234Z,13.57
2019-05-07T13:30:44.017Z,13.63
2019-05-07T13:33:13.508Z,12.33
2019-05-07T13:35:44.358Z,11.33
2019-05-07T13:38:14.653Z,12.57
2019-05-07T13:40:52.717Z,12.93
2019-05-07T13:43:23.179Z,13.13
2019-05-07T13:45:59.759Z,12.37
2019-05-07T13:48:28.675Z,12.97
2019-05-07T13:50:57.623Z,12.77
2019-05-07T13:53:26.352Z,13.53
2019-05-07T13:55:55.012Z,12.97
2019-05-07T13:58:24.284Z,13.90
2019-05-07T14:01:02.076Z,12.97
2019-05-07T14:03:32.914Z,14.23
2019-05-07T14:06:01.717Z,14.03
2019-05-07T14:08:33.344Z,14.93
2019-05-07T14:11:02.754Z,12.80
2019-05-07T14:13:31.628Z,14.67
2019-05-07T14:16:07.424Z,14.90
2019-05-07T14:18:37.792Z,15.80
2019-05-07T14:21:07.236Z,13.83
2019-05-07T14:23:36.291Z,13.53
2019-05-07T14:26:05.287Z,14.27
2019-05-07T14:28:34.019Z,14.37
2019-05-07T14:31:02.856Z,14.60
2019-05-07T14:33:39.105Z,13.77
2019-05-07T14:36:09.375Z,14.53
2019-05-07T14:38:39.689Z,13.00
2019-05-07T14:41:08.325Z,14.23
2019-05-07T14:43:47.971Z,14.77
2019-05-07T14:46:16.685Z,14.67
2019-05-07T14:48:45.549Z,15.03
2019-05-07T14:51:14.246Z,13.83
2019-05-07T14:53:43.069Z,14.57
2019-05-07T14:56:14.452Z,15.17
2019-05-07T14:58:43.699Z,14.47
2019-05-07T15:01:12.365Z,14.57
2019-05-07T15:03:42.391Z,14.20
2019-05-07T15:06:12.588Z,13.13
2019-05-07T15:08:43.039Z,13.97
2019-05-07T15:11:12.045Z,12.87
2019-05-07T15:13:42.765Z,13.37
2019-05-07T15:16:12.463Z,14.37
2019-05-07T15:18:43.866Z,14.20
2019-05-07T15:21:13.385Z,15.43
2019-05-07T15:23:42.629Z,15.60
2019-05-07T15:26:12.809Z,15.67
2019-05-07T15:28:43.389Z,15.97
2019-05-07T15:31:14.031Z,16.63
2019-05-07T15:33:42.847Z,15.90
2019-05-07T15:36:13.024Z,17.00
2019-05-07T15:38:43.411Z,18.60
2019-05-07T15:41:13.187Z,16.83
2019-05-07T15:43:46.177Z,17.17
2019-05-07T15:46:15.178Z,17.47
2019-05-07T15:48:43.915Z,18.30
2019-05-07T15:51:16.525Z,16.90
2019-05-07T15:56:37.427Z,18.30
2019-05-07T15:59:06.124Z,16.93
2019-05-07T16:01:34.696Z,17.57
2019-05-07T16:04:03.345Z,17.47
2019-05-07T16:06:32.424Z,17.83
2019-05-07T16:09:02.469Z,18.27
2019-05-07T16:11:32.589Z,17.80
2019-05-07T16:14:05.975Z,18.20
2019-05-07T16:16:36.253Z,18.70
2019-05-07T16:19:12.908Z,18.77
2019-05-07T16:21:42.552Z,18.73
2019-05-07T16:24:12.110Z,19.60
2019-05-07T16:26:41.895Z,18.60
2019-05-07T16:29:13.025Z,17.97
2019-05-07T16:31:40.945Z,20.90
2019-05-07T16:34:09.557Z,19.23
2019-05-07T16:36:38.200Z,17.03
2019-05-07T16:39:07.683Z,17.63
2019-05-07T16:41:36.332Z,18.43
2019-05-07T16:44:05.366Z,17.90
2019-05-07T16:46:34.003Z,18.57
2019-05-07T16:49:02.638Z,19.10
2019-05-07T16:51:33.069Z,18.53
2019-05-07T16:54:03.372Z,18.57
2019-05-07T16:56:33.359Z,18.57
2019-05-07T16:59:03.832Z,16.73
2019-05-07T17:01:32.621Z,18.87
2019-05-07T17:04:02.759Z,18.30
2019-05-07T17:06:32.131Z,17.73
2019-05-07T17:09:05.728Z,19.33
2019-05-07T17:11:34.359Z,19.33
2019-05-07T17:14:03.019Z,17.43
2019-05-07T17:16:31.879Z,18.53
2019-05-07T17:19:02.457Z,17.70
2019-05-07T17:21:32.390Z,18.13
2019-05-07T17:24:02.530Z,18.23
2019-05-07T17:26:31.372Z,17.83
2019-05-07T17:29:00.029Z,18.40
2019-05-07T17:31:28.777Z,18.10
2019-05-07T17:33:57.417Z,19.63
2019-05-07T17:36:25.988Z,19.43
2019-05-07T17:38:54.668Z,17.90
2019-05-07T17:41:27.034Z,17.00
2019-05-07T17:43:53.746Z,18.53
2019-05-07T17:46:22.392Z,17.53
2019-05-07T17:48:52.425Z,17.30
2019-05-07T17:51:39.142Z,18.30
2019-05-07T17:54:07.778Z,18.70
2019-05-07T17:56:36.420Z,17.77
2019-05-07T17:59:05.044Z,16.77
2019-05-07T18:01:35.329Z,19.63
2019-05-07T18:04:04.108Z,17.17
2019-05-07T18:06:32.662Z,18.00
2019-05-07T18:09:02.950Z,16.40
2019-05-07T18:11:32.416Z,18.30
2019-05-07T18:14:02.613Z,15.50
2019-05-07T18:16:33.143Z,17.53
2019-05-07T18:19:02.208Z,16.23
2019-05-07T18:21:32.568Z,16.00
2019-05-07T18:24:13.045Z,16.77
2019-05-07T18:26:33.729Z,15.80
2019-05-07T18:29:02.603Z,16.30
2019-05-07T18:31:42.064Z,16.13
2019-05-07T18:34:12.835Z,16.70
2019-05-07T18:36:42.224Z,17.07
2019-05-07T18:39:10.989Z,15.83
2019-05-07T18:41:41.594Z,15.73
2019-05-07T18:44:13.616Z,15.87
2019-05-07T18:46:40.357Z,14.90
2019-05-07T18:49:08.849Z,16.03
2019-05-07T18:51:37.543Z,15.77
2019-05-07T18:54:06.391Z,16.67
2019-05-07T18:56:35.023Z,15.53
2019-05-07T18:59:03.735Z,15.40
2019-05-07T19:01:33.995Z,15.37
2019-05-07T19:04:02.703Z,15.57
2019-05-07T19:06:31.857Z,15.43
2019-05-07T19:09:00.685Z,14.60
2019-05-07T19:11:29.402Z,13.40
2019-05-07T19:13:58.932Z,14.70
2019-05-07T19:16:27.663Z,14.50
2019-05-07T19:18:56.327Z,15.60
2019-05-07T19:21:25.187Z,13.63
2019-05-07T19:23:53.742Z,13.90
2019-05-07T19:26:22.320Z,14.13
2019-05-07T19:28:50.957Z,15.13
2019-05-07T19:31:21.870Z,14.90
2019-05-07T19:33:49.897Z,14.20
2019-05-07T19:36:18.532Z,14.77
2019-05-07T19:38:47.201Z,15.07
2019-05-07T19:41:15.889Z,15.83
2019-05-07T19:43:44.617Z,14.03
2019-05-07T19:46:13.298Z,14.33
2019-05-07T19:48:44.081Z,14.23
2019-05-07T19:51:12.483Z,14.23
2019-05-07T19:53:41.966Z,14.67
2019-05-07T19:56:12.500Z,15.23
2019-05-07T19:58:41.918Z,18.00
2019-05-07T20:01:12.226Z,14.53
2019-05-07T20:03:43.286Z,13.40
2019-05-07T20:06:12.906Z,14.87
2019-05-07T20:08:43.748Z,14.10
2019-05-07T20:11:19.497Z,14.63
2019-05-07T20:13:48.245Z,14.50
2019-05-07T20:16:22.940Z,13.60
2019-05-07T20:18:52.403Z,15.80
2019-05-07T20:21:22.897Z,13.37
2019-05-07T20:23:52.652Z,13.33
2019-05-07T20:26:23.087Z,13.03
2019-05-07T20:28:52.694Z,13.97
2019-05-07T20:31:22.538Z,13.63
2019-05-07T20:33:53.021Z,12.53
2019-05-07T20:36:22.039Z,12.60
2019-05-07T20:38:52.188Z,13.17
2019-05-07T20:41:23.056Z,13.13
2019-05-07T20:43:52.387Z,12.80
2019-05-07T20:46:21.199Z,12.47
2019-05-07T20:48:49.826Z,13.23
2019-05-07T20:51:18.470Z,13.00
2019-05-07T20:54:07.186Z,12.10
2019-05-07T20:56:46.631Z,13.07
2019-05-07T20:59:14.372Z,13.10
2019-05-07T21:01:43.108Z,12.87
2019-05-07T21:04:12.949Z,14.30
2019-05-07T21:06:43.314Z,12.13
2019-05-07T21:09:12.706Z,11.27
2019-05-07T21:11:43.127Z,11.20
2019-05-07T21:14:12.756Z,11.67
2019-05-07T21:16:42.532Z,11.37
2019-05-07T21:19:12.921Z,12.03
2019-05-07T21:21:42.274Z,11.10
2019-05-07T21:24:13.096Z,12.13
2019-05-07T21:26:42.330Z,11.93
2019-05-07T21:29:13.630Z,12.37
2019-05-07T21:31:43.250Z,12.17
2019-05-07T21:34:12.564Z,11.13
2019-05-07T21:36:43.244Z,11.90
2019-05-07T21:39:13.137Z,12.40
2019-05-07T21:41:42.607Z,11.70
2019-05-07T21:44:11.597Z,10.17
2019-05-07T21:46:42.347Z,12.40
2019-05-07T21:49:12.265Z,10.57
2019-05-07T21:51:41.084Z,12.17
2019-05-07T21:54:12.164Z,11.03
2019-05-07T21:56:54.667Z,11.03
2019-05-07T21:59:25.382Z,11.97
2019-05-07T22:02:02.292Z,11.03
2019-05-07T22:04:30.975Z,10.90
2019-05-07T22:06:59.541Z,11.03
2019-05-07T22:09:28.197Z,11.00
2019-05-07T22:11:56.865Z,11.20
2019-05-07T22:14:25.506Z,11.03
2019-05-07T22:16:54.684Z,11.13
2019-05-07T22:19:23.345Z,14.23
2019-05-07T22:21:52.378Z,11.07
2019-05-07T22:24:22.618Z,11.43
2019-05-07T22:26:51.251Z,11.77
2019-05-07T22:29:19.891Z,11.70
2019-05-07T22:31:56.116Z,10.90
2019-05-07T22:34:26.334Z,11.33
2019-05-07T22:36:55.191Z,11.90
2019-05-07T22:39:23.885Z,12.10
2019-05-07T22:41:52.435Z,13.10
2019-05-07T22:44:23.847Z,12.67
2019-05-07T22:46:52.726Z,12.27
2019-05-07T22:49:22.881Z,11.53
2019-05-07T22:51:54.614Z,12.23
2019-05-07T22:54:22.679Z,12.13
2019-05-07T22:56:59.002Z,12.37
2019-05-07T22:59:28.560Z,10.90
2019-05-07T23:01:57.271Z,13.07
2019-05-07T23:04:25.876Z,13.20
2019-05-07T23:06:55.581Z,10.97
2019-05-07T23:09:24.226Z,12.63
2019-05-07T23:11:54.947Z,12.47
2019-05-07T23:14:23.673Z,13.67
2019-05-07T23:16:55.322Z,11.13
2019-05-07T23:19:22.520Z,12.80
2019-05-07T23:21:52.198Z,13.97
2019-05-07T23:24:22.642Z,11.23
2019-05-07T23:26:53.571Z,12.63
2019-05-07T23:29:23.315Z,12.70
2019-05-07T23:31:52.822Z,11.20
2019-05-07T23:34:22.922Z,11.47
2019-05-07T23:36:53.321Z,11.97
2019-05-07T23:39:24.184Z,11.97
2019-05-07T23:41:54.457Z,11.43
2019-05-07T23:44:23.153Z,13.00
2019-05-07T23:46:52.150Z,11.33
2019-05-07T23:49:23.244Z,11.53
2019-05-07T23:51:53.069Z,11.07
2019-05-07T23:54:23.168Z,12.63
2019-05-07T23:57:04.910Z,11.87
2019-05-07T23:59:22.472Z,11.40
